Time;durP1;ratioP1;P1;durP2;ratioP2;P2;SDS_P1;SDS_P2;PMS_P1;PMS_P2;Temp;Humidity;BMP_temperature;BMP_pressure;BME280_temperature;BME280_humidity;BME280_pressure;Samples;Min_cycle;Max_cycle;Signal;HPM_P1;HPM_P2
2022/09/13 00:00:17;;;;;;;0.00;0.00;;;17.90;99.90;;;;;;4999497;28;20476;-70
2022/09/13 00:02:45;;;;;;;0.00;0.00;;;17.90;99.90;;;;;;4999374;28;20450;-69
2022/09/13 00:05:12;;;;;;;0.00;0.00;;;17.90;99.90;;;;;;4999690;28;20488;-70
2022/09/13 00:07:40;;;;;;;0.00;0.00;;;17.90;99.90;;;;;;4999401;28;20455;-71
2022/09/13 00:10:08;;;;;;;0.00;0.00;;;17.90;99.90;;;;;;4999335;28;20460;-69
2022/09/13 00:12:36;;;;;;;0.00;0.00;;;17.90;99.90;;;;;;4999463;28;20933;-70
2022/09/13 00:15:07;;;;;;;0.00;0.00;;;17.90;99.90;;;;;;4999600;28;21082;-72
2022/09/13 00:17:36;;;;;;;0.00;0.00;;;17.90;99.90;;;;;;4999631;28;21168;-70
2022/09/13 00:20:04;;;;;;;0.00;0.00;;;17.90;99.90;;;;;;4999889;28;20486;-69
2022/09/13 00:22:33;;;;;;;0.00;0.00;;;17.90;99.90;;;;;;5000102;28;20449;-71
2022/09/13 00:25:00;;;;;;;0.00;0.00;;;17.90;99.90;;;;;;4999850;28;20474;-68
2022/09/13 00:27:28;;;;;;;0.00;0.00;;;17.90;99.90;;;;;;4999780;28;20555;-67
2022/09/13 00:29:56;;;;;;;0.00;0.00;;;17.90;99.90;;;;;;4999314;28;21069;-68
2022/09/13 00:32:25;;;;;;;0.00;0.00;;;18.00;99.90;;;;;;4998935;28;21110;-68
2022/09/13 00:34:53;;;;;;;0.00;0.00;;;18.00;99.90;;;;;;4998780;28;20441;-68
2022/09/13 00:37:21;;;;;;;0.00;0.00;;;18.00;99.90;;;;;;4999391;28;20503;-68
2022/09/13 00:39:49;;;;;;;0.00;0.00;;;18.00;99.90;;;;;;4998873;28;20468;-68
2022/09/13 00:42:17;;;;;;;0.00;0.00;;;18.00;99.90;;;;;;4999128;28;20618;-69
2022/09/13 00:44:53;;;;;;;0.00;0.00;;;18.00;99.90;;;;;;4999342;28;20481;-67
2022/09/13 00:47:27;;;;;;;0.00;0.00;;;18.00;99.90;;;;;;4998888;28;20472;-67
2022/09/13 00:49:59;;;;;;;0.00;0.00;;;17.90;99.90;;;;;;4998891;28;20675;-67
2022/09/13 00:52:31;;;;;;;0.00;0.00;;;17.90;99.90;;;;;;4999503;28;20442;-67
2022/09/13 00:55:02;;;;;;;0.00;0.00;;;17.80;99.90;;;;;;4999137;28;20447;-67
2022/09/13 00:57:33;;;;;;;0.00;0.00;;;17.80;99.90;;;;;;4999324;28;20440;-67
2022/09/13 01:00:10;;;;;;;0.00;0.00;;;17.80;99.90;;;;;;4998792;28;20539;-67
2022/09/13 01:02:41;;;;;;;0.00;0.00;;;17.70;99.90;;;;;;4999190;28;20455;-67
2022/09/13 01:05:10;;;;;;;0.00;0.00;;;17.70;99.90;;;;;;4999616;28;20541;-67
2022/09/13 01:07:39;;;;;;;0.00;0.00;;;17.70;99.90;;;;;;4999831;28;20452;-68
2022/09/13 01:10:07;;;;;;;0.00;0.00;;;17.70;99.90;;;;;;4999404;28;20471;-67
2022/09/13 01:12:42;;;;;;;0.00;0.00;;;17.60;99.90;;;;;;4998992;28;20442;-66
2022/09/13 01:15:11;;;;;;;0.00;0.00;;;17.60;99.90;;;;;;4999990;28;20454;-66
2022/09/13 01:17:41;;;;;;;0.00;0.00;;;17.60;99.90;;;;;;4999475;28;20458;-66
2022/09/13 01:20:11;;;;;;;0.00;0.00;;;17.60;99.90;;;;;;4998567;28;20472;-68
2022/09/13 01:23:15;;;;;;;0.00;0.00;;;17.60;99.90;;;;;;4999017;28;20449;-66
2022/09/13 01:26:19;;;;;;;0.00;0.00;;;17.60;99.90;;;;;;4995362;28;21055;-67
2022/09/13 01:29:33;;;;;;;0.00;0.00;;;17.50;99.90;;;;;;4998922;28;20443;-67
2022/09/13 01:32:11;;;;;;;0.00;0.00;;;17.50;99.90;;;;;;4998839;28;21104;-67
2022/09/13 01:34:53;;;;;;;0.00;0.00;;;17.50;99.90;;;;;;4998928;28;20595;-67
2022/09/13 01:37:34;;;;;;;0.00;0.00;;;17.50;99.90;;;;;;4999772;28;20526;-67
2022/09/13 01:40:12;;;;;;;0.00;0.00;;;17.50;99.90;;;;;;5003129;28;20490;-67
2022/09/13 01:43:02;;;;;;;0.00;0.00;;;17.50;99.90;;;;;;4999389;28;20439;-67
2022/09/13 01:45:43;;;;;;;0.00;0.00;;;17.50;99.90;;;;;;5000100;28;20492;-67
2022/09/13 01:48:18;;;;;;;0.00;0.00;;;17.50;99.90;;;;;;5004009;28;20438;-67
2022/09/13 01:50:52;;;;;;;0.00;0.00;;;17.50;99.90;;;;;;5003649;28;20489;-67
2022/09/13 01:53:31;;;;;;;0.00;0.00;;;17.50;99.90;;;;;;5002934;28;21010;-67
2022/09/13 01:56:04;;;;;;;0.00;0.00;;;17.50;99.90;;;;;;5002855;28;20465;-67
2022/09/13 01:58:41;;;;;;;0.00;0.00;;;17.50;99.90;;;;;;5002733;28;20450;-66
2022/09/13 02:01:14;;;;;;;0.00;0.00;;;17.50;99.90;;;;;;5002461;28;20462;-67
2022/09/13 02:03:47;;;;;;;0.00;0.00;;;17.50;99.90;;;;;;5002327;28;20462;-67
2022/09/13 02:06:20;;;;;;;0.00;0.00;;;17.60;99.90;;;;;;5002432;28;20490;-67
2022/09/13 02:08:51;;;;;;;0.00;0.00;;;17.60;99.90;;;;;;5002197;28;21141;-67
2022/09/13 02:11:21;;;;;;;0.00;0.00;;;17.60;99.90;;;;;;5003306;28;20446;-67
2022/09/13 02:13:57;;;;;;;0.00;0.00;;;17.60;99.90;;;;;;5002439;28;21179;-67
2022/09/13 02:19:41;;;;;;;0.00;0.00;;;17.70;99.90;;;;;;5767505;23;20470;-69
2022/09/13 02:22:13;;;;;;;0.00;0.00;;;17.70;99.90;;;;;;5002889;28;20478;-68
2022/09/13 02:24:45;;;;;;;0.00;0.00;;;17.70;99.90;;;;;;5002806;28;20447;-68
2022/09/13 02:27:16;;;;;;;0.00;0.00;;;17.70;99.90;;;;;;5003350;28;20484;-68
2022/09/13 02:29:46;;;;;;;0.00;0.00;;;17.70;99.90;;;;;;5002701;28;20448;-68
2022/09/13 02:32:17;;;;;;;0.00;0.00;;;17.70;99.90;;;;;;5001942;28;20533;-69
2022/09/13 02:34:51;;;;;;;0.00;0.00;;;17.70;99.90;;;;;;5001582;28;20450;-71
2022/09/13 02:37:19;;;;;;;0.00;0.00;;;17.60;99.90;;;;;;5001472;28;20450;-73
2022/09/13 02:39:52;;;;;;;0.00;0.00;;;17.70;99.90;;;;;;5001480;28;20470;-71
2022/09/13 02:42:21;;;;;;;0.00;0.00;;;17.70;99.90;;;;;;5001282;28;20570;-69
2022/09/13 02:44:52;;;;;;;0.00;0.00;;;17.70;99.90;;;;;;5000873;28;20946;-68
2022/09/13 02:47:34;;;;;;;0.00;0.00;;;17.70;99.90;;;;;;5001513;28;20482;-68
2022/09/13 02:50:21;;;;;;;0.00;0.00;;;17.70;99.90;;;;;;5000807;28;21064;-68
2022/09/13 02:52:58;;;;;;;0.00;0.00;;;17.70;99.90;;;;;;5001369;28;20439;-70
2022/09/13 02:55:33;;;;;;;0.00;0.00;;;17.70;99.90;;;;;;5001067;28;20997;-68
2022/09/13 02:58:09;;;;;;;0.00;0.00;;;17.70;99.90;;;;;;5000329;28;21103;-69
2022/09/13 03:00:37;;;;;;;0.00;0.00;;;17.70;99.90;;;;;;5001039;28;20510;-69
2022/09/13 03:03:09;;;;;;;0.00;0.00;;;17.70;99.90;;;;;;5000887;28;20443;-70
2022/09/13 03:05:38;;;;;;;0.00;0.00;;;17.80;99.90;;;;;;5000816;28;20545;-68
2022/09/13 03:08:09;;;;;;;0.00;0.00;;;17.80;99.90;;;;;;5001470;28;20455;-69
2022/09/13 03:10:49;;;;;;;0.00;0.00;;;17.80;99.90;;;;;;5000942;28;20569;-68
2022/09/13 03:13:36;;;;;;;0.00;0.00;;;17.80;99.90;;;;;;5000664;28;20490;-69
2022/09/13 03:16:12;;;;;;;0.00;0.00;;;17.90;99.90;;;;;;5000582;28;20624;-69
2022/09/13 03:18:55;;;;;;;0.00;0.00;;;17.80;99.90;;;;;;5003766;28;20997;-68
2022/09/13 03:21:40;;;;;;;0.00;0.00;;;17.80;99.90;;;;;;5002486;28;20468;-69
2022/09/13 03:24:18;;;;;;;0.00;0.00;;;17.80;99.90;;;;;;5000866;28;21007;-68
2022/09/13 03:26:56;;;;;;;0.00;0.00;;;17.80;99.90;;;;;;5001603;28;20483;-69
2022/09/13 03:29:31;;;;;;;0.00;0.00;;;17.80;99.90;;;;;;5002141;28;20533;-70
2022/09/13 03:32:14;;;;;;;0.00;0.00;;;17.90;99.90;;;;;;5001762;28;20442;-69
2022/09/13 03:34:51;;;;;;;0.00;0.00;;;17.80;99.90;;;;;;5000756;28;20452;-69
2022/09/13 03:37:25;;;;;;;0.00;0.00;;;17.80;99.90;;;;;;5001117;28;20495;-69
2022/09/13 03:39:59;;;;;;;0.00;0.00;;;17.90;99.90;;;;;;5000090;28;21197;-68
2022/09/13 03:42:33;;;;;;;0.00;0.00;;;17.90;99.90;;;;;;5000575;28;20499;-70
2022/09/13 03:45:03;;;;;;;0.00;0.00;;;17.80;99.90;;;;;;5000613;28;20725;-70
2022/09/13 03:47:35;;;;;;;0.00;0.00;;;17.80;99.90;;;;;;5000215;28;21220;-69
2022/09/13 03:50:03;;;;;;;0.00;0.00;;;17.90;99.90;;;;;;5000078;28;21260;-69
2022/09/13 03:52:33;;;;;;;0.00;0.00;;;17.90;99.90;;;;;;5000187;28;21098;-70
2022/09/13 03:55:01;;;;;;;0.00;0.00;;;17.90;99.90;;;;;;4999923;28;20974;-69
2022/09/13 03:57:31;;;;;;;0.00;0.00;;;17.90;99.90;;;;;;5051282;22;20511;-89
2022/09/13 03:59:59;;;;;;;0.00;0.00;;;17.90;99.90;;;;;;5009892;28;20767;-89
2022/09/13 04:02:27;;;;;;;0.00;0.00;;;18.00;99.90;;;;;;5010045;28;20792;-89
2022/09/13 04:04:56;;;;;;;0.00;0.00;;;17.90;99.90;;;;;;5010121;28;20456;-89
2022/09/13 04:07:25;;;;;;;0.00;0.00;;;17.90;99.90;;;;;;5008821;28;20489;-90
2022/09/13 04:09:54;;;;;;;0.00;0.00;;;18.00;99.90;;;;;;5008568;28;20455;-90
2022/09/13 04:12:22;;;;;;;0.00;0.00;;;18.00;99.90;;;;;;5009367;28;20456;-91
2022/09/13 04:14:51;;;;;;;0.00;0.00;;;18.00;99.90;;;;;;5008608;28;20678;-90
2022/09/13 04:17:19;;;;;;;0.00;0.00;;;18.10;99.90;;;;;;5009578;28;20861;-91
2022/09/13 04:19:47;;;;;;;0.00;0.00;;;18.10;99.90;;;;;;5016587;28;20455;-90
2022/09/13 04:22:15;;;;;;;0.00;0.00;;;18.10;99.90;;;;;;5009365;28;20476;-90
2022/09/13 04:24:43;;;;;;;0.00;0.00;;;18.10;99.90;;;;;;5010640;28;20531;-91
2022/09/13 04:27:13;;;;;;;0.00;0.00;;;18.10;99.90;;;;;;5012046;28;21027;-92
2022/09/13 04:29:42;;;;;;;0.00;0.00;;;18.10;99.90;;;;;;5022132;28;20668;-92
2022/09/13 04:32:10;;;;;;;0.00;0.00;;;18.10;99.90;;;;;;5024869;28;20560;-91
2022/09/13 04:34:38;;;;;;;0.00;0.00;;;18.00;99.90;;;;;;5014473;28;20461;-90
2022/09/13 04:37:06;;;;;;;0.00;0.00;;;18.00;99.90;;;;;;5013367;28;20554;-87
2022/09/13 04:39:34;;;;;;;0.00;0.00;;;17.90;99.90;;;;;;5012263;28;20457;-88
2022/09/13 04:42:02;;;;;;;0.00;0.00;;;17.80;99.90;;;;;;5014056;28;20535;-92
2022/09/13 04:44:32;;;;;;;0.00;0.00;;;17.80;99.90;;;;;;5012546;28;20464;-92
2022/09/13 04:47:15;;;;;;;0.00;0.00;;;17.80;99.90;;;;;;5013591;28;21115;-91
2022/09/13 04:49:43;;;;;;;0.00;0.00;;;17.80;99.90;;;;;;5013295;28;20451;-93
2022/09/13 04:52:11;;;;;;;0.00;0.00;;;17.70;99.90;;;;;;5013071;28;20457;-90
2022/09/13 04:54:39;;;;;;;0.00;0.00;;;17.70;99.90;;;;;;5013042;28;21188;-91
2022/09/13 04:57:08;;;;;;;0.00;0.00;;;17.60;99.90;;;;;;5013351;28;20448;-90
2022/09/13 04:59:47;;;;;;;0.00;0.00;;;17.60;99.90;;;;;;5013816;28;20554;-91
2022/09/13 05:02:15;;;;;;;0.00;0.00;;;17.50;99.90;;;;;;5014360;28;20463;-91
2022/09/13 05:04:43;;;;;;;0.00;0.00;;;17.60;99.90;;;;;;5013924;28;21016;-90
2022/09/13 05:07:12;;;;;;;0.00;0.00;;;17.50;99.90;;;;;;5013106;28;20922;-90
2022/09/13 05:09:39;;;;;;;0.00;0.00;;;17.50;99.90;;;;;;5016146;28;20456;-91
2022/09/13 05:12:11;;;;;;;0.00;0.00;;;17.40;99.90;;;;;;5017422;28;21022;-91
2022/09/13 05:14:47;;;;;;;0.00;0.00;;;17.40;99.90;;;;;;5016511;28;20704;-91
2022/09/13 05:17:16;;;;;;;0.00;0.00;;;17.40;99.90;;;;;;5022963;28;20474;-91
2022/09/13 05:19:48;;;;;;;0.00;0.00;;;17.40;99.90;;;;;;5022796;28;20546;-92
2022/09/13 05:22:37;;;;;;;0.00;0.00;;;17.40;99.90;;;;;;5027719;28;20559;-95
2022/09/13 05:25:12;;;;;;;0.00;0.00;;;17.40;99.90;;;;;;5026458;28;20765;-90
2022/09/13 05:27:41;;;;;;;0.00;0.00;;;17.40;99.90;;;;;;5025978;28;20997;-92
2022/09/13 05:30:12;;;;;;;0.00;0.00;;;17.40;99.90;;;;;;5025924;28;20531;-94
2022/09/13 05:32:41;;;;;;;0.00;0.00;;;17.40;99.90;;;;;;5035780;28;20446;-91
2022/09/13 05:35:10;;;;;;;0.00;0.00;;;17.50;99.90;;;;;;5025260;28;20443;-93
2022/09/13 05:37:42;;;;;;;0.00;0.00;;;17.60;99.90;;;;;;5024063;28;20470;-92
2022/09/13 05:40:11;;;;;;;0.00;0.00;;;17.50;99.90;;;;;;5021637;28;20636;-92
2022/09/13 05:42:39;;;;;;;0.00;0.00;;;17.50;99.90;;;;;;5008264;28;20469;-87
2022/09/13 05:45:10;;;;;;;0.00;0.00;;;17.60;99.90;;;;;;5008535;28;20456;-89
2022/09/13 05:47:38;;;;;;;0.00;0.00;;;17.60;99.90;;;;;;5009553;28;20482;-88
2022/09/13 05:50:10;;;;;;;0.00;0.00;;;17.70;99.90;;;;;;5012921;28;20508;-88
2022/09/13 05:52:54;;;;;;;0.00;0.00;;;17.70;99.90;;;;;;5017016;28;20725;-88
2022/09/13 05:55:23;;;;;;;0.00;0.00;;;17.70;99.90;;;;;;5010114;28;20458;-88
2022/09/13 05:57:51;;;;;;;0.00;0.00;;;17.70;99.90;;;;;;5009445;28;20460;-88
2022/09/13 06:00:21;;;;;;;0.00;0.00;;;17.80;99.90;;;;;;5012244;28;20485;-88
2022/09/13 06:02:49;;;;;;;0.00;0.00;;;17.80;99.90;;;;;;5010374;28;20526;-88
2022/09/13 06:05:17;;;;;;;0.00;0.00;;;17.90;99.90;;;;;;5009720;28;20483;-88
2022/09/13 06:07:45;;;;;;;0.00;0.00;;;17.90;99.90;;;;;;5014774;28;20473;-88
2022/09/13 06:10:13;;;;;;;0.00;0.00;;;18.00;99.90;;;;;;5013444;28;20480;-88
2022/09/13 06:12:41;;;;;;;0.00;0.00;;;18.00;99.90;;;;;;5012712;28;20517;-88
2022/09/13 06:15:10;;;;;;;0.00;0.00;;;18.10;99.90;;;;;;5013599;28;20477;-88
2022/09/13 06:17:39;;;;;;;0.00;0.00;;;18.20;99.90;;;;;;5017036;28;20539;-88
2022/09/13 06:20:09;;;;;;;0.00;0.00;;;18.20;99.90;;;;;;5013871;28;20622;-87
2022/09/13 06:22:37;;;;;;;0.00;0.00;;;18.20;99.90;;;;;;5009541;28;20457;-87
2022/09/13 06:25:06;;;;;;;0.00;0.00;;;18.20;99.90;;;;;;5017480;28;20462;-88
2022/09/13 06:27:34;;;;;;;0.00;0.00;;;18.20;99.90;;;;;;5015356;28;20478;-88
2022/09/13 06:30:02;;;;;;;0.00;0.00;;;18.30;99.90;;;;;;5013808;28;20472;-89
2022/09/13 06:32:31;;;;;;;0.00;0.00;;;18.30;99.90;;;;;;5016717;28;20448;-86
2022/09/13 06:35:01;;;;;;;0.00;0.00;;;18.30;99.90;;;;;;5022789;28;20475;-87
2022/09/13 06:37:29;;;;;;;0.00;0.00;;;18.40;99.90;;;;;;5012949;28;20999;-90
2022/09/13 06:39:57;;;;;;;0.00;0.00;;;18.40;99.90;;;;;;5006349;28;20517;-88
2022/09/13 06:42:27;;;;;;;0.00;0.00;;;18.40;99.90;;;;;;5000066;28;20977;-91
2022/09/13 06:44:58;;;;;;;0.00;0.00;;;18.50;99.90;;;;;;5012406;28;20481;-90
2022/09/13 06:47:31;;;;;;;0.00;0.00;;;18.60;99.90;;;;;;5014955;28;20521;-89
2022/09/13 06:50:06;;;;;;;0.00;0.00;;;18.60;99.90;;;;;;5012942;28;20469;-91
2022/09/13 06:52:36;;;;;;;0.00;0.00;;;18.60;99.90;;;;;;4998911;28;20454;-90
2022/09/13 06:55:05;;;;;;;0.00;0.00;;;18.80;99.90;;;;;;5004171;28;20504;-88
2022/09/13 06:57:39;;;;;;;0.00;0.00;;;18.90;99.90;;;;;;5010447;28;20579;-89
2022/09/13 07:00:09;;;;;;;0.00;0.00;;;19.10;99.90;;;;;;5000706;28;20676;-90
2022/09/13 07:02:38;;;;;;;0.00;0.00;;;19.20;99.90;;;;;;5001769;28;20446;-90
2022/09/13 07:05:14;;;;;;;0.00;0.00;;;19.20;99.90;;;;;;5001094;28;20577;-93
2022/09/13 07:11:05;;;;;;;0.00;0.00;;;19.30;99.90;;;;;;5029257;28;21090;-91
2022/09/13 07:13:41;;;;;;;0.00;0.00;;;19.40;99.90;;;;;;5034356;28;20453;-91
2022/09/13 07:16:13;;;;;;;0.00;0.00;;;19.40;99.90;;;;;;5031111;28;20527;-91
2022/09/13 07:18:50;;;;;;;0.00;0.00;;;19.30;99.90;;;;;;5014613;28;20750;-90
2022/09/13 07:21:38;;;;;;;0.00;0.00;;;19.30;99.90;;;;;;5033823;28;20473;-90
2022/09/13 07:24:31;;;;;;;0.00;0.00;;;19.30;99.90;;;;;;4955658;29;20536;-89
2022/09/13 07:27:07;;;;;;;0.00;0.00;;;19.40;99.90;;;;;;4951779;28;20652;-90
2022/09/13 07:29:39;;;;;;;0.00;0.00;;;19.50;99.90;;;;;;4973759;28;20583;-90
2022/09/13 07:32:07;;;;;;;0.00;0.00;;;19.60;99.90;;;;;;4973598;28;20456;-89
2022/09/13 07:34:36;;;;;;;0.00;0.00;;;19.70;99.90;;;;;;4982509;28;20435;-89
2022/09/13 07:37:05;;;;;;;0.00;0.00;;;19.70;99.90;;;;;;4981487;28;20853;-90
2022/09/13 07:39:34;;;;;;;0.00;0.00;;;19.90;99.90;;;;;;4970416;28;20527;-90
2022/09/13 07:45:14;;;;;;;0.00;0.00;;;19.80;99.90;;;;;;5016547;28;20446;-90
2022/09/13 07:47:55;;;;;;;0.00;0.00;;;19.70;99.90;;;;;;5018238;28;20840;-90
2022/09/13 07:50:26;;;;;;;0.00;0.00;;;19.70;99.90;;;;;;5008227;28;20477;-90
2022/09/13 07:53:13;;;;;;;0.00;0.00;;;19.80;99.90;;;;;;5006597;28;20506;-89
2022/09/13 07:56:07;;;;;;;0.00;0.00;;;19.90;99.90;;;;;;4994982;28;20446;-89
2022/09/13 07:58:55;;;;;;;0.00;0.00;;;20.00;99.90;;;;;;4998959;28;20460;-90
2022/09/13 08:02:03;;;;;;;0.00;0.00;;;20.00;99.90;;;;;;5003213;28;20466;-91
2022/09/13 08:04:41;;;;;;;0.00;0.00;;;20.00;99.90;;;;;;5002011;28;20447;-91
2022/09/13 08:07:13;;;;;;;0.00;0.00;;;20.00;99.90;;;;;;5012096;28;20446;-89
2022/09/13 08:09:49;;;;;;;0.00;0.00;;;20.10;99.90;;;;;;5009969;28;21012;-89
2022/09/13 08:12:17;;;;;;;0.00;0.00;;;20.00;99.90;;;;;;5004772;28;20549;-90
2022/09/13 08:14:53;;;;;;;0.00;0.00;;;20.00;99.90;;;;;;5009148;28;20975;-91
2022/09/13 08:17:25;;;;;;;0.00;0.00;;;20.00;99.90;;;;;;5001446;28;20458;-89
2022/09/13 08:20:05;;;;;;;0.00;0.00;;;20.10;99.90;;;;;;5013198;28;20462;-90
2022/09/13 08:26:17;;;;;;;0.00;0.00;;;20.20;99.90;;;;;;4997120;28;20443;-88
2022/09/13 08:28:48;;;;;;;0.00;0.00;;;20.30;99.90;;;;;;5001689;28;20565;-89
2022/09/13 08:31:25;;;;;;;0.00;0.00;;;20.40;99.90;;;;;;5010744;28;20786;-89
2022/09/13 08:33:54;;;;;;;0.00;0.00;;;20.40;99.90;;;;;;5006779;28;20484;-91
2022/09/13 08:36:37;;;;;;;0.00;0.00;;;20.40;99.90;;;;;;5022020;28;20453;-90
2022/09/13 08:39:11;;;;;;;0.00;0.00;;;20.40;99.90;;;;;;5019368;28;20508;-89
2022/09/13 08:42:11;;;;;;;0.00;0.00;;;20.40;99.90;;;;;;5014661;28;20469;-90
2022/09/13 08:45:01;;;;;;;0.00;0.00;;;20.40;99.90;;;;;;5013583;28;20453;-91
2022/09/13 08:47:40;;;;;;;0.00;0.00;;;20.30;99.90;;;;;;5015444;28;20450;-91
2022/09/13 08:50:18;;;;;;;0.00;0.00;;;20.30;99.90;;;;;;5013475;28;20671;-91
2022/09/13 08:53:15;;;;;;;0.00;0.00;;;20.30;99.90;;;;;;5012887;28;20462;-90
2022/09/13 08:55:52;;;;;;;0.00;0.00;;;20.20;99.90;;;;;;5014561;28;20454;-91
2022/09/13 08:58:41;;;;;;;0.00;0.00;;;20.00;99.90;;;;;;5016834;28;20471;-92
2022/09/13 09:01:28;;;;;;;0.00;0.00;;;20.00;99.90;;;;;;5018679;28;20561;-90
2022/09/13 09:04:07;;;;;;;0.00;0.00;;;20.10;99.90;;;;;;5016616;28;20453;-92
2022/09/13 09:06:39;;;;;;;0.00;0.00;;;20.20;99.90;;;;;;5014416;28;20446;-91
2022/09/13 09:09:15;;;;;;;0.00;0.00;;;20.20;99.90;;;;;;5018542;28;20494;-92
2022/09/13 09:11:50;;;;;;;0.00;0.00;;;20.10;99.90;;;;;;5012364;28;20785;-90
2022/09/13 09:14:29;;;;;;;0.00;0.00;;;20.00;99.90;;;;;;5011540;28;20451;-91
2022/09/13 09:17:05;;;;;;;0.00;0.00;;;20.00;99.90;;;;;;5012880;28;20593;-91
2022/09/13 09:19:48;;;;;;;0.00;0.00;;;20.00;99.90;;;;;;5017519;28;20445;-93
2022/09/13 09:22:20;;;;;;;0.00;0.00;;;20.00;99.90;;;;;;5017636;28;20885;-93
2022/09/13 09:25:08;;;;;;;0.00;0.00;;;20.00;99.90;;;;;;5017439;28;20496;-90
2022/09/13 09:27:36;;;;;;;0.00;0.00;;;20.00;99.90;;;;;;5021997;28;20446;-90
2022/09/13 09:30:14;;;;;;;0.00;0.00;;;20.10;99.90;;;;;;5021626;28;20506;-92
2022/09/13 09:32:56;;;;;;;0.00;0.00;;;20.20;99.90;;;;;;5018542;28;20473;-93
2022/09/13 09:35:36;;;;;;;0.00;0.00;;;20.40;99.90;;;;;;5019765;28;20801;-91
2022/09/13 09:38:27;;;;;;;0.00;0.00;;;20.40;99.90;;;;;;5022484;28;20482;-91
2022/09/13 09:40:56;;;;;;;0.00;0.00;;;20.60;99.90;;;;;;5022361;28;20466;-93
2022/09/13 09:43:29;;;;;;;0.00;0.00;;;20.70;99.90;;;;;;5021536;28;20557;-91
2022/09/13 09:46:14;;;;;;;0.00;0.00;;;20.70;99.90;;;;;;5013616;28;20441;-90
2022/09/13 09:48:50;;;;;;;0.00;0.00;;;20.60;99.90;;;;;;5020742;28;20743;-90
2022/09/13 09:51:23;;;;;;;0.00;0.00;;;20.40;99.90;;;;;;5024423;23;20563;-76
2022/09/13 09:53:58;;;;;;;0.00;0.00;;;20.20;99.90;;;;;;4981372;28;20434;-75
2022/09/13 09:56:30;;;;;;;0.00;0.00;;;20.20;99.90;;;;;;4979330;28;20443;-74
2022/09/13 09:58:58;;;;;;;0.00;0.00;;;20.20;99.90;;;;;;4980349;28;20540;-74
2022/09/13 10:01:29;;;;;;;0.00;0.00;;;20.20;99.90;;;;;;4979443;28;20513;-73
2022/09/13 10:04:07;;;;;;;0.00;0.00;;;20.10;99.90;;;;;;4972227;28;20466;-74
2022/09/13 10:06:37;;;;;;;0.00;0.00;;;20.20;99.90;;;;;;4976053;28;20558;-73
2022/09/13 10:09:06;;;;;;;0.00;0.00;;;20.20;99.90;;;;;;4963469;28;20471;-73
2022/09/13 10:11:46;;;;;;;0.00;0.00;;;20.40;99.90;;;;;;4962655;28;20450;-74
2022/09/13 10:14:41;;;;;;;0.00;0.00;;;20.70;99.90;;;;;;4961869;28;20447;-74
2022/09/13 10:17:20;;;;;;;0.00;0.00;;;21.10;99.90;;;;;;4961886;28;20980;-78
2022/09/13 10:19:58;;;;;;;0.00;0.00;;;21.30;99.90;;;;;;4971774;28;20474;-76
2022/09/13 10:22:26;;;;;;;0.00;0.00;;;21.50;99.90;;;;;;4965631;28;20972;-76
2022/09/13 10:24:54;;;;;;;0.00;0.00;;;21.80;99.90;;;;;;4981610;28;21008;-75
2022/09/13 10:27:32;;;;;;;0.00;0.00;;;21.80;99.90;;;;;;4981439;28;20481;-72
2022/09/13 10:30:02;;;;;;;0.00;0.00;;;21.80;99.90;;;;;;4980892;28;21040;-73
2022/09/13 10:32:32;;;;;;;0.00;0.00;;;21.60;99.90;;;;;;4981295;28;20962;-68
2022/09/13 10:35:16;;;;;;;0.00;0.00;;;21.50;99.90;;;;;;4980963;28;20479;-71
2022/09/13 10:37:45;;;;;;;0.00;0.00;;;21.40;99.90;;;;;;4980994;28;20455;-69
2022/09/13 10:40:19;;;;;;;0.00;0.00;;;21.50;99.90;;;;;;4980006;28;20591;-69
2022/09/13 10:42:52;;;;;;;0.00;0.00;;;21.50;99.90;;;;;;4981945;28;20483;-69
2022/09/13 10:45:23;;;;;;;0.00;0.00;;;21.50;99.90;;;;;;4981489;28;20526;-69
2022/09/13 10:47:54;;;;;;;0.00;0.00;;;21.40;99.90;;;;;;4981882;28;21005;-69
2022/09/13 10:50:25;;;;;;;0.00;0.00;;;21.30;99.90;;;;;;4981237;28;20518;-70
2022/09/13 10:52:54;;;;;;;0.00;0.00;;;21.20;99.90;;;;;;4981576;28;20450;-70
2022/09/13 10:55:41;;;;;;;0.00;0.00;;;21.10;99.90;;;;;;4981835;28;20439;-70
2022/09/13 10:58:16;;;;;;;0.00;0.00;;;21.00;99.90;;;;;;4981660;28;20723;-70
2022/09/13 11:01:01;;;;;;;0.00;0.00;;;21.00;99.90;;;;;;4980907;28;20450;-70
2022/09/13 11:03:44;;;;;;;0.00;0.00;;;21.10;99.90;;;;;;4981214;28;20439;-69
2022/09/13 11:06:19;;;;;;;0.00;0.00;;;21.10;99.90;;;;;;4981059;28;20807;-70
2022/09/13 11:08:57;;;;;;;0.00;0.00;;;21.10;99.90;;;;;;4981423;28;20625;-70
2022/09/13 11:11:33;;;;;;;0.00;0.00;;;21.10;99.90;;;;;;4981255;28;20491;-69
2022/09/13 11:14:15;;;;;;;0.00;0.00;;;21.10;99.90;;;;;;4981487;28;20442;-69
2022/09/13 11:16:53;;;;;;;0.00;0.00;;;21.10;99.90;;;;;;4981316;28;20462;-70
2022/09/13 11:19:50;;;;;;;0.00;0.00;;;21.00;99.90;;;;;;4980888;28;20498;-69
2022/09/13 11:22:54;;;;;;;0.00;0.00;;;20.80;99.90;;;;;;4981187;28;20756;-70
2022/09/13 11:25:43;;;;;;;0.00;0.00;;;20.70;99.90;;;;;;4980957;28;20851;-70
2022/09/13 11:28:23;;;;;;;0.00;0.00;;;20.50;99.90;;;;;;4980929;28;20443;-69
2022/09/13 11:31:09;;;;;;;0.00;0.00;;;20.60;99.90;;;;;;4980487;28;20901;-69
2022/09/13 11:33:48;;;;;;;0.00;0.00;;;20.70;99.90;;;;;;4980368;28;20974;-70
2022/09/13 11:36:42;;;;;;;0.00;0.00;;;20.80;99.90;;;;;;4980625;28;20462;-70
2022/09/13 11:39:20;;;;;;;0.00;0.00;;;21.00;99.90;;;;;;4980013;28;20473;-70
2022/09/13 11:41:58;;;;;;;0.00;0.00;;;21.00;99.90;;;;;;4978222;28;20898;-70
2022/09/13 11:44:48;;;;;;;0.00;0.00;;;21.10;99.90;;;;;;4971442;28;20502;-68
2022/09/13 11:47:23;;;;;;;0.00;0.00;;;21.20;99.90;;;;;;4964382;28;20470;-77
2022/09/13 11:50:15;;;;;;;0.00;0.00;;;21.10;99.90;;;;;;4960194;28;20761;-76
2022/09/13 11:52:52;;;;;;;0.00;0.00;;;21.10;99.90;;;;;;4970147;28;20581;-77
2022/09/13 11:55:26;;;;;;;0.00;0.00;;;21.00;99.90;;;;;;4963446;28;21073;-76
2022/09/13 11:57:57;;;;;;;0.00;0.00;;;20.80;99.90;;;;;;4973124;28;20521;-76
2022/09/13 12:00:29;;;;;;;0.00;0.00;;;20.80;99.90;;;;;;4961264;28;20470;-77
2022/09/13 12:03:06;;;;;;;0.00;0.00;;;20.90;99.90;;;;;;4961473;28;20441;-73
2022/09/13 12:05:49;;;;;;;0.00;0.00;;;21.10;99.90;;;;;;4961221;28;20932;-76
2022/09/13 12:08:21;;;;;;;0.00;0.00;;;21.20;99.90;;;;;;4962409;28;20454;-77
2022/09/13 12:10:52;;;;;;;0.00;0.00;;;21.30;99.90;;;;;;4962069;28;20479;-78
2022/09/13 12:13:24;;;;;;;0.00;0.00;;;21.50;99.90;;;;;;4962542;28;20496;-76
2022/09/13 12:15:55;;;;;;;0.00;0.00;;;21.60;99.90;;;;;;4962367;28;20450;-73
2022/09/13 12:18:26;;;;;;;0.00;0.00;;;21.70;99.90;;;;;;4961559;28;20996;-75
2022/09/13 12:20:57;;;;;;;0.00;0.00;;;21.90;99.90;;;;;;4961809;28;21083;-75
2022/09/13 12:23:32;;;;;;;0.00;0.00;;;22.00;99.90;;;;;;4964086;28;20457;-75
2022/09/13 12:26:03;;;;;;;0.00;0.00;;;22.10;99.90;;;;;;4980785;28;20464;-75
2022/09/13 12:28:34;;;;;;;0.00;0.00;;;22.10;99.90;;;;;;4980285;28;20453;-76
2022/09/13 12:31:07;;;;;;;0.00;0.00;;;22.00;99.90;;;;;;4979680;28;20528;-74
2022/09/13 12:33:39;;;;;;;0.00;0.00;;;22.00;99.90;;;;;;4980049;28;20726;-75
2022/09/13 12:36:36;;;;;;;0.00;0.00;;;22.00;99.90;;;;;;4979904;28;20448;-74
2022/09/13 12:39:28;;;;;;;0.00;0.00;;;22.10;99.90;;;;;;4961972;28;20475;-75
2022/09/13 12:42:22;;;;;;;0.00;0.00;;;22.00;99.90;;;;;;4967188;28;20440;-74
2022/09/13 12:45:06;;;;;;;0.00;0.00;;;22.00;99.90;;;;;;4970569;28;20473;-74
2022/09/13 12:47:49;;;;;;;0.00;0.00;;;22.20;99.90;;;;;;4963940;28;20775;-75
2022/09/13 12:50:39;;;;;;;0.00;0.00;;;22.20;99.90;;;;;;4966418;28;20471;-75
2022/09/13 12:53:31;;;;;;;0.00;0.00;;;22.20;99.90;;;;;;4966970;28;20733;-74
2022/09/13 12:56:19;;;;;;;0.00;0.00;;;22.20;99.90;;;;;;4969157;28;20929;-74
2022/09/13 12:59:01;;;;;;;0.00;0.00;;;22.10;99.90;;;;;;4968660;28;20582;-78
2022/09/13 13:01:31;;;;;;;0.00;0.00;;;22.10;99.90;;;;;;4983319;28;20494;-78
2022/09/13 13:04:02;;;;;;;0.00;0.00;;;22.20;99.90;;;;;;4976822;28;20482;-76
2022/09/13 13:06:35;;;;;;;0.00;0.00;;;22.20;99.90;;;;;;4964672;28;20455;-74
2022/09/13 13:09:07;;;;;;;0.00;0.00;;;22.20;99.90;;;;;;4966852;28;20910;-74
2022/09/13 13:11:47;;;;;;;0.00;0.00;;;22.20;99.90;;;;;;4971173;28;20485;-74
2022/09/13 13:14:42;;;;;;;0.00;0.00;;;22.10;99.90;;;;;;4979367;28;20423;-74
2022/09/13 13:17:40;;;;;;;0.00;0.00;;;22.10;99.90;;;;;;4970434;28;20988;-74
2022/09/13 13:20:45;;;;;;;0.00;0.00;;;22.00;99.90;;;;;;4974360;28;21093;-74
2022/09/13 13:23:25;;;;;;;0.00;0.00;;;22.00;99.90;;;;;;4973403;28;20459;-74
2022/09/13 13:26:06;;;;;;;0.00;0.00;;;22.00;99.90;;;;;;4978289;28;20448;-74
2022/09/13 13:29:05;;;;;;;0.00;0.00;;;22.00;99.90;;;;;;4959154;28;20841;-73
2022/09/13 13:31:39;;;;;;;0.00;0.00;;;22.00;99.90;;;;;;4960592;28;20476;-78
2022/09/13 13:34:35;;;;;;;0.00;0.00;;;22.00;99.90;;;;;;4960141;28;20868;-75
2022/09/13 13:37:06;;;;;;;0.00;0.00;;;22.00;99.90;;;;;;4968657;28;20447;-75
2022/09/13 13:39:39;;;;;;;0.00;0.00;;;21.90;99.90;;;;;;4979272;28;20456;-76
2022/09/13 13:42:26;;;;;;;0.00;0.00;;;21.80;99.90;;;;;;4982564;28;20461;-77